< < Back
Terminal Aerodrome Forecast


Current Version              Previous Versions:   1  2  3  4  5  6  7  8  9  

Terminal Aerodrome Forecast

215
FTUS44 KBMX 201100
TAFANB
TAF
KANB 201134Z 2012/2112 00000KT P6SM SCT250
     FM201500 25006KT P6SM SCT040
     FM210100 00000KT P6SM SKC=



Latest METAR

528
SAUS70 KWBC 201400 RRA
MTRANB
METAR KANB 201353Z AUTO 24009KT 10SM CLR 26/21 A3008 RMK AO2 SLP175
T02610211


USA.gov is the U.S. government's official web portal to all federal, state and local government web resources and services.